Enter the Airport ICAO Code

Search by Airport or City

Current Weather

PANC | Ted Stevens Anchorage International Airport

Anchorage, Alaska, United States

Last Update 1 Hour Ago

Mostly Cloudy Sky

Temperature of 03 ºC Below Zero

Light to Moderate Winds from North

Temperature

03 ºC Below Zero

Dew Point Temperature

06 ºC Below Zero

Relative Humidity

79.65 %

Wind Direction

North (350º, Without Significant Variations)

Wind Velocity

15 km/h (08 kt)

Gusts

None

Visibility

Greater than 10 Miles

Sea Level Pressure

29.98 inHg (Inches of Mercury)

Layers of Clouds

5% to 30% of Sky Covered from 1829 mts (6000 ft) Above Ground Level.

5% to 30% of Sky Covered from 2438 mts (8000 ft) Above Ground Level.

60% to 90% of Sky Covered from 3048 mts (10000 ft) Above Ground Level.

METAR PANC 201153Z 35008KT 10SM FEW060 FEW080 BKN100 M03/M06 A2998 RMK AO2 SLP153 4/017 60000 T10331061 11017 21033 51013

Weather Forecast

PANC | Ted Stevens Anchorage International Airport

Anchorage, Alaska, United States

Forecast valid for the next 29 Hours

From now on it is expected:

Mostly Cloudy Sky

Light to Moderate Winds from North

Maximum Temperature

No Data

Minimum Temperature

No Data

TAF PANC 201122Z 2012/2118 34006KT P6SM FEW060 BKN090